createdAt,value
2022-08-19T00:01:29.222Z,6.43
2022-08-19T00:04:21.676Z,6.18
2022-08-19T00:07:09.543Z,6.70
2022-08-19T00:09:57.157Z,6.32
2022-08-19T00:12:46.926Z,6.13
2022-08-19T00:15:45.755Z,6.63
2022-08-19T00:18:33.627Z,6.50
2022-08-19T00:21:21.787Z,6.83
2022-08-19T00:24:10.286Z,7.00
2022-08-19T00:27:24.847Z,7.05
2022-08-19T00:30:06.435Z,7.50
2022-08-19T00:32:55.495Z,6.70
2022-08-19T00:35:43.210Z,7.00
2022-08-19T00:38:37.279Z,7.87
2022-08-19T00:41:27.340Z,7.00
2022-08-19T00:44:20.798Z,7.43
2022-08-19T00:47:11.025Z,7.53
2022-08-19T00:50:02.306Z,8.27
2022-08-19T00:52:52.935Z,8.18
2022-08-19T00:55:42.240Z,8.60
2022-08-19T00:58:36.006Z,9.20
2022-08-19T01:01:22.824Z,8.85
2022-08-19T01:04:10.165Z,8.23
2022-08-19T01:06:58.541Z,9.40
2022-08-19T01:09:46.016Z,8.20
2022-08-19T01:12:35.135Z,8.45
2022-08-19T01:15:26.738Z,9.20
2022-08-19T01:18:16.113Z,8.43
2022-08-19T01:21:08.334Z,8.40
2022-08-19T01:23:56.898Z,9.32
2022-08-19T01:26:45.907Z,9.48
2022-08-19T01:29:34.160Z,9.70
2022-08-19T01:32:33.198Z,9.27
2022-08-19T01:35:24.423Z,9.90
2022-08-19T01:38:22.475Z,10.53
2022-08-19T01:41:11.489Z,9.93
2022-08-19T01:44:09.746Z,12.13
2022-08-19T01:47:04.713Z,10.35
2022-08-19T01:49:52.023Z,12.40
2022-08-19T01:52:40.057Z,11.68
2022-08-19T01:55:27.162Z,11.80
2022-08-19T01:58:19.740Z,12.57
2022-08-19T02:01:08.010Z,12.15
2022-08-19T02:03:56.972Z,12.43
2022-08-19T02:06:44.975Z,12.05
2022-08-19T02:09:33.351Z,12.48
2022-08-19T02:12:20.433Z,12.55
2022-08-19T02:15:09.997Z,12.33
2022-08-19T02:17:57.349Z,13.32
2022-08-19T02:20:45.840Z,11.93
2022-08-19T02:23:33.987Z,12.00
2022-08-19T02:26:20.887Z,13.00
2022-08-19T02:29:08.006Z,12.38
2022-08-19T02:31:56.190Z,11.90
2022-08-19T02:34:43.910Z,12.20
2022-08-19T02:37:48.500Z,12.73
2022-08-19T02:40:36.709Z,12.63
2022-08-19T02:43:24.941Z,13.57
2022-08-19T02:46:18.786Z,12.83
2022-08-19T02:49:08.844Z,14.13
2022-08-19T02:51:55.852Z,12.67
2022-08-19T02:54:43.291Z,12.33
2022-08-19T02:57:32.695Z,11.60
2022-08-19T03:00:19.902Z,13.43
2022-08-19T03:03:07.057Z,12.82
2022-08-19T03:06:06.012Z,13.07
2022-08-19T03:08:53.526Z,13.10
2022-08-19T03:11:41.310Z,12.63
2022-08-19T03:14:28.964Z,12.10
2022-08-19T03:17:16.246Z,14.27
2022-08-19T03:20:05.026Z,12.97
2022-08-19T03:22:54.171Z,12.90
2022-08-19T03:25:44.622Z,13.37
2022-08-19T03:28:32.491Z,13.33
2022-08-19T03:31:41.730Z,13.65
2022-08-19T03:34:31.812Z,13.65
2022-08-19T03:37:18.785Z,13.37
2022-08-19T03:40:08.044Z,12.80
2022-08-19T03:43:01.047Z,12.25
2022-08-19T03:45:48.264Z,12.73
2022-08-19T03:48:37.735Z,13.57
2022-08-19T03:51:31.024Z,14.35
2022-08-19T03:54:20.339Z,13.35
2022-08-19T03:57:09.988Z,12.63
2022-08-19T04:00:12.627Z,12.47
2022-08-19T04:03:01.928Z,13.20
2022-08-19T04:05:49.173Z,12.82
2022-08-19T04:08:36.067Z,11.60
2022-08-19T04:11:42.754Z,12.57
2022-08-19T04:14:34.827Z,11.70
2022-08-19T04:17:22.303Z,13.30
2022-08-19T04:20:10.486Z,12.93
2022-08-19T04:22:59.181Z,13.02
2022-08-19T04:25:47.330Z,13.07
2022-08-19T04:28:35.653Z,13.82
2022-08-19T04:31:27.290Z,12.35
2022-08-19T04:34:15.523Z,13.13
2022-08-19T04:37:02.525Z,12.45
2022-08-19T04:40:15.052Z,11.80
2022-08-19T04:43:02.108Z,12.75
2022-08-19T04:45:49.332Z,13.50
2022-08-19T04:48:49.246Z,13.20
2022-08-19T04:51:37.794Z,12.82
2022-08-19T04:54:37.476Z,12.48
2022-08-19T04:57:26.142Z,13.50
2022-08-19T05:00:14.486Z,13.15
2022-08-19T05:03:07.486Z,12.70
2022-08-19T05:05:56.007Z,12.80
2022-08-19T05:08:45.024Z,13.50
2022-08-19T05:11:33.781Z,12.17
2022-08-19T05:14:22.705Z,12.63
2022-08-19T05:20:34.835Z,13.00
2022-08-19T05:23:23.206Z,13.07
2022-08-19T05:26:12.051Z,12.77
2022-08-19T05:28:59.313Z,12.30
2022-08-19T05:31:50.275Z,11.50
2022-08-19T05:34:39.118Z,13.73
2022-08-19T05:37:28.553Z,11.77
2022-08-19T05:40:17.390Z,12.00
2022-08-19T05:43:06.300Z,10.82
2022-08-19T05:45:53.346Z,11.77
2022-08-19T05:48:40.490Z,10.05
2022-08-19T05:51:29.333Z,11.38
2022-08-19T05:54:16.241Z,11.20
2022-08-19T05:57:05.175Z,11.82
2022-08-19T05:59:56.755Z,11.45
2022-08-19T06:02:45.632Z,9.30
2022-08-19T06:05:32.585Z,9.80
2022-08-19T06:08:35.026Z,9.88
2022-08-19T06:11:24.912Z,11.55
2022-08-19T06:14:16.666Z,10.70
2022-08-19T06:17:07.036Z,10.73
2022-08-19T06:19:54.469Z,11.18
2022-08-19T06:22:42.724Z,10.93
2022-08-19T06:25:32.118Z,10.25
2022-08-19T06:28:23.340Z,10.80
2022-08-19T06:31:12.427Z,12.05
2022-08-19T06:33:59.524Z,11.82
2022-08-19T06:36:49.438Z,12.27
2022-08-19T06:39:40.279Z,12.70
2022-08-19T06:42:27.926Z,12.00
2022-08-19T06:45:15.813Z,12.50
2022-08-19T06:48:04.658Z,11.20
2022-08-19T06:50:52.678Z,12.65
2022-08-19T06:53:40.762Z,12.27
2022-08-19T06:56:34.560Z,11.98
2022-08-19T06:59:23.387Z,12.60
2022-08-19T07:02:10.663Z,12.25
2022-08-19T07:04:59.343Z,11.85
2022-08-19T07:07:46.202Z,11.60
2022-08-19T07:10:36.011Z,11.77
2022-08-19T07:13:23.819Z,12.57
2022-08-19T07:16:12.723Z,11.65
2022-08-19T07:19:00.658Z,12.27
2022-08-19T07:22:05.302Z,11.77
2022-08-19T07:24:53.820Z,11.70
2022-08-19T07:27:41.023Z,11.75
2022-08-19T07:30:28.064Z,12.15
2022-08-19T07:33:15.266Z,12.15
2022-08-19T07:36:02.205Z,12.35
2022-08-19T07:38:52.726Z,12.90
2022-08-19T07:41:40.340Z,13.20
2022-08-19T07:44:29.366Z,13.88
2022-08-19T07:47:49.715Z,14.82
2022-08-19T07:50:26.298Z,13.57
2022-08-19T07:53:14.224Z,13.60
2022-08-19T07:56:05.008Z,14.30
2022-08-19T07:58:53.858Z,14.02
2022-08-19T08:01:42.178Z,13.10
2022-08-19T08:04:55.372Z,14.98
2022-08-19T08:08:05.686Z,14.73
2022-08-19T08:10:54.672Z,14.80
2022-08-19T08:13:45.753Z,14.30
2022-08-19T08:16:33.570Z,14.20
2022-08-19T08:19:25.966Z,14.75
2022-08-19T08:22:44.693Z,15.35
2022-08-19T08:25:32.469Z,15.77
2022-08-19T08:28:21.818Z,13.15
2022-08-19T08:31:11.657Z,13.70
2022-08-19T08:33:58.870Z,13.70
2022-08-19T08:36:47.533Z,14.00
2022-08-19T08:39:34.988Z,13.73
2022-08-19T08:42:29.517Z,13.10
2022-08-19T08:45:19.993Z,13.02
2022-08-19T08:48:22.305Z,13.57
2022-08-19T08:51:20.439Z,14.50
2022-08-19T08:54:10.154Z,13.63
2022-08-19T08:56:56.880Z,13.27
2022-08-19T08:59:50.624Z,14.05
2022-08-19T09:02:38.767Z,14.18
2022-08-19T09:05:41.433Z,14.30
2022-08-19T09:09:00.626Z,14.35
2022-08-19T09:11:59.073Z,14.30
2022-08-19T09:14:52.173Z,14.82
2022-08-19T09:17:39.804Z,13.30
2022-08-19T09:20:27.011Z,14.02
2022-08-19T09:23:16.344Z,14.52
2022-08-19T09:26:03.626Z,13.77
2022-08-19T09:28:53.610Z,13.63
2022-08-19T09:31:41.517Z,13.98
2022-08-19T09:34:30.374Z,14.55
2022-08-19T09:37:25.263Z,13.65
2022-08-19T09:40:15.402Z,13.38
2022-08-19T09:43:12.966Z,14.25
2022-08-19T09:46:01.221Z,14.60
2022-08-19T09:48:49.473Z,14.40
2022-08-19T09:51:36.416Z,14.70
2022-08-19T09:54:25.185Z,12.82
2022-08-19T09:57:13.552Z,14.50
2022-08-19T10:00:00.578Z,14.35
2022-08-19T10:02:47.467Z,13.45
2022-08-19T10:05:54.615Z,14.93
2022-08-19T10:08:50.215Z,14.52
2022-08-19T10:11:40.663Z,13.98
2022-08-19T10:14:32.465Z,14.48
2022-08-19T10:17:25.110Z,14.88
2022-08-19T10:20:13.846Z,14.15
2022-08-19T10:23:01.335Z,15.05
2022-08-19T10:25:48.793Z,14.63
2022-08-19T10:28:38.972Z,14.55
2022-08-19T10:32:00.328Z,13.68
2022-08-19T10:34:48.664Z,15.63
2022-08-19T10:37:36.250Z,15.80
2022-08-19T10:40:35.942Z,15.75
2022-08-19T10:43:23.004Z,15.02
2022-08-19T10:46:14.159Z,15.63
2022-08-19T10:49:07.244Z,16.30
2022-08-19T10:52:11.915Z,16.67
2022-08-19T10:55:25.698Z,16.45
2022-08-19T10:58:23.241Z,16.45
2022-08-19T11:01:10.325Z,15.57
2022-08-19T11:03:57.540Z,16.45
2022-08-19T11:06:48.410Z,17.67
2022-08-19T11:09:40.975Z,16.50
2022-08-19T11:12:29.126Z,17.83
2022-08-19T11:15:16.453Z,17.88
2022-08-19T11:18:03.821Z,16.85
2022-08-19T11:20:51.613Z,15.63
2022-08-19T11:23:40.498Z,16.88
2022-08-19T11:26:28.543Z,16.88
2022-08-19T11:29:16.273Z,17.75
2022-08-19T11:32:07.148Z,17.20
2022-08-19T11:34:54.209Z,17.98
2022-08-19T11:37:41.936Z,17.48
2022-08-19T11:40:30.284Z,16.27
2022-08-19T11:43:17.346Z,13.63
2022-08-19T11:46:08.098Z,15.02
2022-08-19T11:48:55.455Z,16.05
2022-08-19T11:51:44.226Z,16.17
2022-08-19T11:54:31.932Z,15.07
2022-08-19T11:57:20.792Z,15.02
2022-08-19T12:00:09.470Z,14.75
2022-08-19T12:02:56.871Z,16.10
2022-08-19T12:05:44.509Z,16.30
2022-08-19T12:08:31.547Z,15.73
2022-08-19T12:11:18.625Z,16.77
2022-08-19T12:14:07.613Z,16.02
2022-08-19T12:16:54.370Z,17.92
2022-08-19T12:19:42.085Z,17.77
2022-08-19T12:22:29.211Z,18.27
2022-08-19T12:25:16.476Z,18.17
2022-08-19T12:28:04.183Z,18.58
2022-08-19T12:30:53.679Z,18.92
2022-08-19T12:33:41.283Z,17.95
2022-08-19T12:36:28.436Z,17.40
2022-08-19T12:39:15.365Z,18.95
2022-08-19T12:42:02.455Z,17.90
2022-08-19T12:44:49.837Z,19.27
2022-08-19T12:47:38.331Z,17.17
2022-08-19T12:50:27.753Z,18.20
2022-08-19T12:53:15.705Z,17.17
2022-08-19T12:56:03.344Z,15.73
2022-08-19T12:58:54.369Z,15.75
2022-08-19T13:01:43.211Z,13.68
2022-08-19T13:04:31.410Z,15.65
2022-08-19T13:07:18.387Z,13.98
2022-08-19T13:10:05.903Z,12.70
2022-08-19T13:12:54.212Z,13.02
2022-08-19T13:15:43.982Z,13.38
2022-08-19T13:18:30.980Z,12.75
2022-08-19T13:21:30.977Z,12.15
2022-08-19T13:24:17.971Z,12.57
2022-08-19T13:27:05.425Z,12.98
2022-08-19T13:30:09.839Z,12.05
2022-08-19T13:33:16.492Z,12.95
2022-08-19T13:36:07.660Z,12.20
2022-08-19T13:38:57.696Z,11.82
2022-08-19T13:41:49.156Z,11.48
2022-08-19T13:44:51.951Z,12.05
2022-08-19T13:47:45.496Z,11.50
2022-08-19T13:50:33.606Z,12.13
2022-08-19T13:53:20.751Z,11.20
2022-08-19T13:56:10.366Z,11.32
2022-08-19T13:58:59.498Z,11.38
2022-08-19T14:01:46.676Z,12.32
2022-08-19T14:04:33.864Z,12.13
2022-08-19T14:07:21.237Z,11.23
2022-08-19T14:10:10.897Z,11.32
2022-08-19T14:13:00.822Z,10.93
2022-08-19T14:15:49.151Z,10.15
2022-08-19T14:18:38.581Z,11.35
2022-08-19T14:21:26.787Z,10.07
2022-08-19T14:24:14.424Z,11.23
2022-08-19T14:27:01.626Z,9.60
2022-08-19T14:29:49.739Z,10.05
2022-08-19T14:32:37.761Z,10.45
2022-08-19T14:35:25.077Z,10.25
2022-08-19T14:38:17.950Z,9.95
2022-08-19T14:41:11.536Z,9.85
2022-08-19T14:44:01.359Z,10.48
2022-08-19T14:46:49.842Z,10.63
2022-08-19T14:49:42.261Z,9.32
2022-08-19T14:52:34.620Z,9.65
2022-08-19T14:55:22.105Z,10.02
2022-08-19T14:58:09.894Z,10.07
2022-08-19T15:01:18.344Z,10.18
2022-08-19T15:04:06.802Z,9.48
2022-08-19T15:06:53.475Z,9.50
2022-08-19T15:09:40.638Z,10.05
2022-08-19T15:12:27.590Z,8.98
2022-08-19T15:15:18.220Z,9.25
2022-08-19T15:18:05.481Z,9.05
2022-08-19T15:20:54.025Z,8.88
2022-08-19T15:23:41.846Z,9.32
2022-08-19T15:26:33.426Z,8.15
2022-08-19T15:29:20.315Z,8.55
2022-08-19T15:32:10.202Z,9.60
2022-08-19T15:34:57.553Z,8.95
2022-08-19T15:37:46.187Z,8.98
2022-08-19T15:40:33.563Z,7.72
2022-08-19T15:43:22.396Z,8.43
2022-08-19T15:46:09.206Z,7.70
2022-08-19T15:49:00.197Z,8.02
2022-08-19T15:51:49.312Z,7.97
2022-08-19T15:54:37.755Z,8.02
2022-08-19T15:57:42.490Z,7.95
2022-08-19T16:00:52.686Z,7.80
2022-08-19T16:03:57.107Z,9.15
2022-08-19T16:06:48.861Z,7.95
2022-08-19T16:09:37.450Z,7.50
2022-08-19T16:12:27.534Z,8.15
2022-08-19T16:15:15.109Z,7.40
2022-08-19T16:18:04.283Z,7.80
2022-08-19T16:20:51.332Z,7.35
2022-08-19T16:23:39.011Z,7.53
2022-08-19T16:26:29.502Z,7.10
2022-08-19T16:29:33.248Z,7.50
2022-08-19T16:32:21.562Z,7.30
2022-08-19T16:35:09.462Z,7.93
2022-08-19T16:37:56.798Z,6.75
2022-08-19T16:40:46.729Z,7.38
2022-08-19T16:43:35.500Z,7.43
2022-08-19T16:46:25.293Z,6.13
2022-08-19T16:49:18.019Z,6.13
2022-08-19T16:52:10.359Z,6.38
2022-08-19T16:54:57.006Z,6.15
2022-08-19T16:57:44.199Z,6.07
2022-08-19T17:00:32.477Z,7.15
2022-08-19T17:03:35.604Z,7.45
2022-08-19T17:06:26.855Z,6.63
2022-08-19T17:09:16.087Z,7.15
2022-08-19T17:12:03.360Z,7.07
2022-08-19T17:14:50.269Z,6.90
2022-08-19T17:17:38.277Z,6.85
2022-08-19T17:20:26.376Z,7.43
2022-08-19T17:23:16.224Z,7.20
2022-08-19T17:26:03.234Z,6.28
2022-08-19T17:28:52.075Z,6.70
2022-08-19T17:31:38.537Z,7.72
2022-08-19T17:34:28.080Z,7.25
2022-08-19T17:37:16.238Z,6.53
2022-08-19T17:40:06.551Z,6.90
2022-08-19T17:42:54.464Z,6.80
2022-08-19T17:45:42.889Z,7.10
2022-08-19T17:48:36.576Z,6.32
2022-08-19T17:51:28.026Z,6.55
2022-08-19T17:54:19.260Z,7.40
2022-08-19T17:57:06.631Z,7.88
2022-08-19T17:59:53.934Z,7.07
2022-08-19T18:02:47.161Z,7.43
2022-08-19T18:05:37.545Z,6.55
2022-08-19T18:08:25.812Z,6.85
2022-08-19T18:11:12.671Z,6.57
2022-08-19T18:14:00.222Z,6.68
2022-08-19T18:16:47.701Z,6.45
2022-08-19T18:19:41.240Z,6.78
2022-08-19T18:22:33.707Z,7.13
2022-08-19T18:25:27.637Z,8.07
2022-08-19T18:28:15.246Z,6.78
2022-08-19T18:31:03.666Z,7.13
2022-08-19T18:33:53.526Z,7.07
2022-08-19T18:36:53.418Z,6.47
2022-08-19T18:39:58.925Z,7.50
2022-08-19T18:43:05.556Z,6.55
2022-08-19T18:46:10.127Z,6.50
2022-08-19T18:49:07.265Z,7.05
2022-08-19T18:51:56.799Z,7.05
2022-08-19T18:54:46.937Z,6.95
2022-08-19T18:57:34.490Z,7.07
2022-08-19T19:00:23.085Z,6.97
2022-08-19T19:03:11.365Z,7.15
2022-08-19T19:05:58.907Z,8.27
2022-08-19T19:08:46.045Z,8.05
2022-08-19T19:11:36.315Z,7.65
2022-08-19T19:14:47.626Z,6.82
2022-08-19T19:17:34.672Z,7.18
2022-08-19T19:20:22.085Z,8.00
2022-08-19T19:23:25.246Z,8.02
2022-08-19T19:26:13.766Z,8.10
2022-08-19T19:29:01.060Z,7.97
2022-08-19T19:31:51.389Z,8.43
2022-08-19T19:34:41.219Z,7.57
2022-08-19T19:37:28.507Z,7.25
2022-08-19T19:40:15.894Z,7.28
2022-08-19T19:43:04.928Z,6.78
2022-08-19T19:45:52.217Z,7.55
2022-08-19T19:48:39.542Z,6.88
2022-08-19T19:51:28.976Z,6.80
2022-08-19T19:54:23.451Z,7.75
2022-08-19T19:57:11.286Z,8.27
2022-08-19T19:59:58.450Z,7.50
2022-08-19T20:02:49.895Z,7.70
2022-08-19T20:05:37.361Z,7.90
2022-08-19T20:08:43.711Z,7.23
2022-08-19T20:11:34.315Z,7.63
2022-08-19T20:14:24.408Z,8.00
2022-08-19T20:17:14.060Z,8.23
2022-08-19T20:20:01.674Z,8.77
2022-08-19T20:22:48.946Z,6.73
2022-08-19T20:25:40.044Z,7.57
2022-08-19T20:28:31.033Z,7.53
2022-08-19T20:31:18.875Z,7.63
2022-08-19T20:34:06.184Z,7.83
2022-08-19T20:36:53.342Z,8.07
2022-08-19T20:39:40.721Z,7.60
2022-08-19T20:42:29.511Z,7.70
2022-08-19T20:45:32.445Z,7.87
2022-08-19T20:48:20.361Z,7.63
2022-08-19T20:51:08.191Z,7.70
2022-08-19T20:53:55.722Z,7.87
2022-08-19T20:56:43.139Z,8.13
2022-08-19T20:59:32.532Z,7.53
2022-08-19T21:02:20.052Z,8.03
2022-08-19T21:05:08.172Z,7.57
2022-08-19T21:07:55.357Z,6.53
2022-08-19T21:10:43.528Z,7.60
2022-08-19T21:13:31.677Z,7.17
2022-08-19T21:16:20.045Z,6.97
2022-08-19T21:19:06.800Z,6.73
2022-08-19T21:21:53.861Z,7.00
2022-08-19T21:24:42.215Z,6.40
2022-08-19T21:27:29.083Z,7.57
2022-08-19T21:30:16.102Z,7.00
2022-08-19T21:33:05.897Z,7.00
2022-08-19T21:35:54.241Z,7.70
2022-08-19T21:38:42.896Z,6.93
2022-08-19T21:41:29.875Z,7.67
2022-08-19T21:44:16.952Z,7.83
2022-08-19T21:47:05.427Z,7.40
2022-08-19T21:49:57.312Z,7.57
2022-08-19T21:52:44.926Z,6.23
2022-08-19T21:55:32.132Z,6.83
2022-08-19T21:58:19.343Z,6.43
2022-08-19T22:01:16.180Z,5.90
2022-08-19T22:04:03.241Z,6.40
2022-08-19T22:06:52.410Z,6.37
2022-08-19T22:09:41.130Z,5.73
2022-08-19T22:12:36.547Z,6.80
2022-08-19T22:15:27.281Z,6.30
2022-08-19T22:18:15.685Z,6.23
2022-08-19T22:21:06.399Z,6.07
2022-08-19T22:23:57.990Z,6.50
2022-08-19T22:26:45.089Z,6.33
2022-08-19T22:29:34.129Z,6.07
2022-08-19T22:32:27.212Z,6.37
2022-08-19T22:35:17.285Z,6.17
2022-08-19T22:38:07.278Z,6.37
2022-08-19T22:40:56.579Z,6.40
2022-08-19T22:43:43.615Z,5.57
2022-08-19T22:46:34.319Z,6.50
2022-08-19T22:49:21.494Z,6.03
2022-08-19T22:52:22.068Z,7.00
2022-08-19T22:55:09.855Z,6.30
2022-08-19T22:57:59.403Z,6.33
2022-08-19T23:00:46.323Z,6.03
2022-08-19T23:03:34.344Z,5.50
2022-08-19T23:06:21.442Z,5.33
2022-08-19T23:09:09.680Z,5.93
2022-08-19T23:11:56.533Z,5.77
2022-08-19T23:14:46.381Z,5.93
2022-08-19T23:17:33.670Z,6.10
2022-08-19T23:20:21.153Z,5.30
2022-08-19T23:23:19.070Z,5.73
2022-08-19T23:26:06.345Z,5.80
2022-08-19T23:29:16.063Z,5.60
2022-08-19T23:32:07.091Z,5.93
2022-08-19T23:34:56.791Z,5.40
2022-08-19T23:37:44.096Z,5.27
2022-08-19T23:40:31.516Z,4.87
2022-08-19T23:43:24.317Z,5.10
2022-08-19T23:46:27.536Z,4.97
2022-08-19T23:49:16.859Z,5.90
2022-08-19T23:52:04.643Z,4.97
2022-08-19T23:54:51.984Z,5.30
2022-08-19T23:57:39.937Z,5.50
